Wooton, KY (41776)

2:18 PM EDT on July 26, 2016 (GMT -0400)
Harlan | | Change Station

Elev 1552 ft 36.86 °N, 83.36 °W | Updated 23 minutes ago

Mostly Cloudy
Mostly Cloudy
88 °F
Feels Like 91 °F
N
0
Wind Variable Wind from North

Today
High -- | Low -- °F
--% Chance of Precip.
Yesterday
High -- | Low -- °F
Precip. -- in
Pressure 30.08 in
Visibility -9999.0 miles
Clouds Scattered Clouds 4100 ft
Mostly Cloudy 4800 ft
Mostly Cloudy 5000 ft
Heat Index 91 °F
Dew Point 68 °F
Humidity 52%
Rainfall 0.00 in
Snow Depth Not available.
6:33 AM 8:45 PM
Waning Gibbous, 52% visible
METAR KI35 261755Z AUTO 00000KT SCT041 BKN048 BKN050 31/20 A3008 RMK AO1
Pressure 30.08 in
Visibility -9999.0 miles
Clouds Scattered Clouds 4100 ft
Mostly Cloudy 4800 ft
Mostly Cloudy 5000 ft
Heat Index 91 °F
Dew Point 68 °F
Humidity 52%
Rainfall 0.00 in
Snow Depth Not available.
6:33 AM 8:45 PM
Waning Gibbous, 52% visible
METAR KI35 261755Z AUTO 00000KT SCT041 BKN048 BKN050 31/20 A3008 RMK AO1

10-Day Weather Forecast

Almanac

Astronomy

Jul. 26, 2016 Rise Set
Actual Time
Civil Twilight
Nautical Twilight
Astronomical Twilight
Moon
Length of Visible Light
Length of Day
Tomorrow will be .
, % of the Moon is Illuminated

Today's Extremes

State Highs State Lows

Community

WunderPhotos

Upload Photos

1,927,650 photos uploaded!

WunderBlog® & News

Nearby

Air Quality

  Air Quality AQ Index Pollutant
Not available.

Snow Depth

Station Depth Elevation

Earthquake Activity

City Distance Mag. Time & Date
Minimum magnitude displayed is 2.5.

Coastal Water Temperatures

Place Temperature

Stations

Nearby Weather Stations

Station Location Temp. Windchill Dew Point Humidity Wind Precip. Elev Updated Type
                   

Watches & Warnings

There are currently no watches in effect.